Strona główna
METAR-TAF:

METAR-TAF

Lotnisko :

Vannes, Francja

Szerokość geograficzna: 47-43-19N, Długość geograficzna: 2-43-41W, wysokość: 130 m

Aktualna obserwacja pogody

Raport powstał 44 minut temu, godzina 11:00 UTC
Wiatr 13 kt od południe w porywach dochodzący do 24 kt, zmienny między południe i południowy zachód
Temperatura 11°C
Wilgotność 87%
Ciśnienie 1022 hPa
Widzialność 10 km lub więcej
Rozproszone chmury na wysokości 1900 ft
Przerywane chmury na wysokości 5200 ft
Zachmurzenie całkowite na wysokości 6600 ft

METAR: LFRV 101100Z AUTO 19013G24KT 170V230 9999 SCT019 BKN052 OVC066 11/09 Q1022

czas: 12:44 (11:44 UTC)


TAF: brakujący

Obserwacja i prognoza pogody dla ponad 4000 lotnisk (raport METAR i TAF).

Dostępne stacje oznaczono żółtymi i czerwonymi punktami na mapie.

Najedź kursorem aby zobaczyć nazwę stacji.

Kliknij aby zobaczyć obserwacje i prognozy pogody.

Aby zmienić mapę: kliknij na zielony przycisk z czarnym krzyżykiem, aby powiększyć; na zielony przycisk z myślnikiem, aby pomniejszyć; na zielone strzałki, aby przejść do map sąsiednich.


METAR-TAF: